createdAt,value
2023-03-29T00:01:51.382Z,101380.31
2023-03-29T00:04:23.577Z,101377.19
2023-03-29T00:06:55.516Z,101378.28
2023-03-29T00:09:24.868Z,101373.25
2023-03-29T00:11:53.963Z,101370.59
2023-03-29T00:14:25.747Z,101368.34
2023-03-29T00:16:59.940Z,101361.59
2023-03-29T00:19:31.215Z,101366.19
2023-03-29T00:22:06.284Z,101356.03
2023-03-29T00:24:40.824Z,101359.22
2023-03-29T00:27:12.572Z,101363.63
2023-03-29T00:29:55.893Z,101362.31
2023-03-29T00:32:27.875Z,101359.22
2023-03-29T00:35:02.389Z,101351.41
2023-03-29T00:37:46.846Z,101359.00
2023-03-29T00:40:16.977Z,101349.59
2023-03-29T00:42:49.182Z,101343.41
2023-03-29T00:45:22.613Z,101337.19
2023-03-29T00:48:04.371Z,101341.25
2023-03-29T00:50:33.545Z,101336.44
2023-03-29T00:53:07.112Z,101338.88
2023-03-29T00:55:39.844Z,101327.66
2023-03-29T00:58:09.493Z,101332.91
2023-03-29T01:00:43.425Z,101338.03
2023-03-29T01:03:16.090Z,101338.50
2023-03-29T01:05:49.346Z,101329.28
2023-03-29T01:08:23.204Z,101324.56
2023-03-29T01:11:05.496Z,101327.22
2023-03-29T01:13:39.800Z,101322.44
2023-03-29T01:16:09.873Z,101319.75
2023-03-29T01:18:39.142Z,101318.69
2023-03-29T01:21:08.187Z,101320.41
2023-03-29T01:23:52.745Z,101316.13
2023-03-29T01:26:40.088Z,101309.56
2023-03-29T01:29:16.746Z,101307.72
2023-03-29T01:31:56.222Z,101304.50
2023-03-29T01:34:31.191Z,101304.03
2023-03-29T01:37:05.623Z,101301.13
2023-03-29T01:39:36.569Z,101299.81
2023-03-29T01:42:17.667Z,101287.75
2023-03-29T01:44:52.139Z,101284.13
2023-03-29T01:47:37.253Z,101285.06
2023-03-29T01:50:12.590Z,101285.31
2023-03-29T01:52:43.238Z,101278.19
2023-03-29T01:55:17.161Z,101278.81
2023-03-29T01:57:49.482Z,101274.66
2023-03-29T02:00:19.468Z,101279.81
2023-03-29T02:02:48.645Z,101275.84
2023-03-29T02:05:17.978Z,101271.06
2023-03-29T02:07:46.993Z,101274.72
2023-03-29T02:10:26.468Z,101267.22
2023-03-29T02:12:55.529Z,101264.09
2023-03-29T02:15:25.095Z,101264.72
2023-03-29T02:17:57.050Z,101250.94
2023-03-29T02:20:27.575Z,101249.78
2023-03-29T02:23:12.115Z,101242.78
2023-03-29T02:25:41.217Z,101243.59
2023-03-29T02:28:15.331Z,101242.59
2023-03-29T02:30:51.091Z,101232.97
2023-03-29T02:33:20.958Z,101237.72
2023-03-29T02:36:06.883Z,101235.47
2023-03-29T02:38:37.913Z,101230.97
2023-03-29T02:41:07.260Z,101227.22
2023-03-29T02:43:36.314Z,101221.88
2023-03-29T02:46:05.734Z,101224.06
2023-03-29T02:48:34.736Z,101223.09
2023-03-29T02:51:04.338Z,101218.34
2023-03-29T02:53:38.537Z,101206.81
2023-03-29T02:56:10.344Z,101210.91
2023-03-29T02:58:42.520Z,101207.03
2023-03-29T03:01:12.038Z,101195.56
2023-03-29T03:03:41.154Z,101199.47
2023-03-29T03:06:10.263Z,101202.75
2023-03-29T03:08:39.360Z,101201.44
2023-03-29T03:11:08.673Z,101193.44
2023-03-29T03:13:37.861Z,101186.16
2023-03-29T03:16:07.078Z,101184.94
2023-03-29T03:18:36.079Z,101186.16
2023-03-29T03:21:06.045Z,101175.19
2023-03-29T03:23:35.040Z,101169.16
2023-03-29T03:26:04.492Z,101165.75
2023-03-29T03:28:33.856Z,101159.34
2023-03-29T03:31:03.077Z,101153.16
2023-03-29T03:33:32.236Z,101152.13
2023-03-29T03:36:10.023Z,101149.06
2023-03-29T03:38:39.710Z,101136.28
2023-03-29T03:41:08.854Z,101138.00
2023-03-29T03:43:38.746Z,101143.72
2023-03-29T03:46:10.170Z,101131.69
2023-03-29T03:48:39.206Z,101132.22
2023-03-29T03:51:11.391Z,101123.91
2023-03-29T03:53:40.479Z,101115.88
2023-03-29T03:56:12.850Z,101107.22
2023-03-29T03:58:42.134Z,101118.66
2023-03-29T04:01:11.479Z,101110.03
2023-03-29T04:03:40.714Z,101103.97
2023-03-29T04:06:09.899Z,101096.94
2023-03-29T04:08:43.729Z,101096.66
2023-03-29T04:11:12.854Z,101093.59
2023-03-29T04:13:45.184Z,101082.78
2023-03-29T04:16:14.387Z,101081.53
2023-03-29T04:18:43.483Z,101076.72
2023-03-29T04:21:12.707Z,101078.81
2023-03-29T04:23:41.784Z,101077.38
2023-03-29T04:26:11.190Z,101076.88
2023-03-29T04:28:40.232Z,101064.59
2023-03-29T04:31:16.062Z,101061.88
2023-03-29T04:33:50.996Z,101051.97
2023-03-29T04:36:20.006Z,101051.97
2023-03-29T04:38:49.312Z,101049.31
2023-03-29T04:41:18.331Z,101039.53
2023-03-29T04:43:47.920Z,101035.13
2023-03-29T04:46:20.103Z,101040.16
2023-03-29T04:48:52.833Z,101037.78
2023-03-29T04:51:23.796Z,101040.13
2023-03-29T04:53:53.051Z,101033.75
2023-03-29T04:56:22.051Z,101026.13
2023-03-29T04:58:53.480Z,101024.16
2023-03-29T05:01:22.630Z,101014.84
2023-03-29T05:03:54.890Z,101011.31
2023-03-29T05:06:23.851Z,101007.94
2023-03-29T05:08:53.795Z,101003.50
2023-03-29T05:11:26.668Z,101004.09
2023-03-29T05:13:58.732Z,100998.66
2023-03-29T05:16:31.115Z,101001.31
2023-03-29T05:19:00.405Z,100988.78
2023-03-29T05:21:32.633Z,100988.66
2023-03-29T05:24:16.761Z,100981.31
2023-03-29T05:26:46.407Z,100992.75
2023-03-29T05:29:19.534Z,100985.97
2023-03-29T05:31:51.311Z,100989.38
2023-03-29T05:34:23.795Z,100994.81
2023-03-29T05:36:53.258Z,100983.84
2023-03-29T05:39:22.700Z,100981.34
2023-03-29T05:41:54.664Z,100985.31
2023-03-29T05:44:23.954Z,100972.81
2023-03-29T05:46:52.983Z,100975.03
2023-03-29T05:49:24.736Z,100971.00
2023-03-29T05:51:53.904Z,100962.81
2023-03-29T05:54:26.031Z,100968.03
2023-03-29T05:56:55.097Z,100962.31
2023-03-29T05:59:29.968Z,100968.03
2023-03-29T06:02:11.078Z,100964.25
2023-03-29T06:04:45.652Z,100962.88
2023-03-29T06:07:14.729Z,100955.84
2023-03-29T06:09:43.783Z,100965.56
2023-03-29T06:12:13.785Z,100971.72
2023-03-29T06:14:42.801Z,100972.88
2023-03-29T06:17:12.322Z,100964.84
2023-03-29T06:19:44.524Z,100962.88
2023-03-29T06:22:16.282Z,100969.00
2023-03-29T06:24:45.589Z,100969.78
2023-03-29T06:27:23.657Z,100968.50
2023-03-29T06:29:53.261Z,100972.31
2023-03-29T06:32:22.707Z,100977.72
2023-03-29T06:34:52.458Z,100962.00
2023-03-29T06:37:24.331Z,100970.03
2023-03-29T06:39:55.367Z,100973.50
2023-03-29T06:42:24.730Z,100970.50
2023-03-29T06:44:54.064Z,100962.44
2023-03-29T06:47:32.254Z,100971.47
2023-03-29T06:50:01.506Z,100959.44
2023-03-29T06:52:30.542Z,100960.09
2023-03-29T06:55:08.959Z,100956.78
2023-03-29T06:57:38.415Z,100952.22
2023-03-29T07:00:40.708Z,100963.16
2023-03-29T07:03:12.059Z,100959.75
2023-03-29T07:05:43.832Z,100964.16
2023-03-29T07:08:13.412Z,100969.38
2023-03-29T07:10:43.396Z,100965.53
2023-03-29T07:13:18.851Z,100965.59
2023-03-29T07:15:47.990Z,100966.75
2023-03-29T07:18:20.115Z,100958.28
2023-03-29T07:20:52.484Z,100963.41
2023-03-29T07:23:24.244Z,100968.66
2023-03-29T07:25:53.721Z,100966.44
2023-03-29T07:28:25.893Z,100962.88
2023-03-29T07:30:56.545Z,100958.75
2023-03-29T07:33:25.897Z,100954.13
2023-03-29T07:35:57.844Z,100973.66
2023-03-29T07:38:27.113Z,100966.56
2023-03-29T07:40:56.185Z,100968.75
2023-03-29T07:43:25.770Z,100971.88
2023-03-29T07:45:54.975Z,100965.53
2023-03-29T07:48:23.998Z,100970.47
2023-03-29T07:50:53.028Z,100965.66
2023-03-29T07:53:22.658Z,100974.63
2023-03-29T07:55:52.196Z,100969.78
2023-03-29T07:58:21.810Z,100974.28
2023-03-29T08:00:50.886Z,100970.69
2023-03-29T08:03:20.110Z,100967.81
2023-03-29T08:05:49.220Z,100971.53
2023-03-29T08:08:18.737Z,100970.34
2023-03-29T08:10:47.877Z,100976.78
2023-03-29T08:13:19.753Z,100980.91
2023-03-29T08:15:53.050Z,100978.47
2023-03-29T08:18:22.327Z,100982.75
2023-03-29T08:20:52.545Z,100982.16
2023-03-29T08:23:24.310Z,100968.88
2023-03-29T08:25:53.639Z,100976.19
2023-03-29T08:28:22.611Z,100982.56
2023-03-29T08:30:51.615Z,100982.91
2023-03-29T08:33:23.051Z,100984.88
2023-03-29T08:35:52.128Z,100983.28
2023-03-29T08:38:21.400Z,100976.63
2023-03-29T08:40:50.987Z,100985.78
2023-03-29T08:43:32.198Z,100988.84
2023-03-29T08:46:19.919Z,100994.66
2023-03-29T08:49:08.950Z,100993.56
2023-03-29T08:51:38.978Z,100992.72
2023-03-29T08:54:11.697Z,100988.34
2023-03-29T08:56:41.199Z,100990.44
2023-03-29T08:59:14.345Z,100983.22
2023-03-29T09:01:43.372Z,100988.72
2023-03-29T09:04:19.184Z,100991.66
2023-03-29T09:06:49.075Z,100995.56
2023-03-29T09:09:20.257Z,100999.38
2023-03-29T09:11:49.331Z,100996.94
2023-03-29T09:14:34.645Z,101000.59
2023-03-29T09:17:03.698Z,101008.75
2023-03-29T09:19:53.745Z,101008.06
2023-03-29T09:22:25.825Z,101009.88
2023-03-29T09:25:07.043Z,101006.59
2023-03-29T09:28:11.374Z,101010.38
2023-03-29T09:30:44.336Z,101016.84
2023-03-29T09:33:26.299Z,101019.66
2023-03-29T09:36:01.343Z,101017.22
2023-03-29T09:38:31.310Z,101018.31
2023-03-29T09:41:01.778Z,101014.78
2023-03-29T09:43:40.906Z,101018.59
2023-03-29T09:46:17.383Z,101015.03
2023-03-29T09:48:46.424Z,101018.00
2023-03-29T09:51:15.496Z,101016.28
2023-03-29T09:53:44.548Z,101018.25
2023-03-29T09:56:13.690Z,101020.19
2023-03-29T09:58:43.263Z,101015.06
2023-03-29T10:01:13.562Z,101022.25
2023-03-29T10:03:43.077Z,101012.66
2023-03-29T10:06:12.563Z,101015.59
2023-03-29T10:08:42.981Z,101012.19
2023-03-29T10:11:16.099Z,101011.47
2023-03-29T10:13:52.926Z,101016.94
2023-03-29T10:16:26.254Z,101016.22
2023-03-29T10:18:56.203Z,101014.63
2023-03-29T10:21:25.897Z,101016.59
2023-03-29T10:24:01.894Z,101017.56
2023-03-29T10:26:32.436Z,101023.00
2023-03-29T10:29:03.367Z,101019.59
2023-03-29T10:31:35.495Z,101031.41
2023-03-29T10:34:05.706Z,101025.22
2023-03-29T10:36:34.750Z,101028.00
2023-03-29T10:39:06.055Z,101031.78
2023-03-29T10:41:40.913Z,101032.75
2023-03-29T10:44:12.012Z,101032.88
2023-03-29T10:46:45.382Z,101040.19
2023-03-29T10:49:18.539Z,101039.47
2023-03-29T10:51:48.475Z,101040.41
2023-03-29T10:54:19.543Z,101034.34
2023-03-29T10:56:54.665Z,101039.81
2023-03-29T10:59:31.900Z,101034.59
2023-03-29T11:02:23.820Z,101039.09
2023-03-29T11:05:04.976Z,101044.59
2023-03-29T11:07:43.556Z,101041.16
2023-03-29T11:10:30.833Z,101038.63
2023-03-29T11:13:02.771Z,101042.38
2023-03-29T11:15:49.946Z,101048.59
2023-03-29T11:18:29.123Z,101047.97
2023-03-29T11:21:06.803Z,101054.31
2023-03-29T11:23:51.976Z,101057.97
2023-03-29T11:26:30.920Z,101058.91
2023-03-29T11:29:02.944Z,101062.56
2023-03-29T11:31:50.201Z,101059.16
2023-03-29T11:34:34.176Z,101062.81
2023-03-29T11:37:21.492Z,101057.47
2023-03-29T11:40:02.742Z,101064.78
2023-03-29T11:42:33.693Z,101056.00
2023-03-29T11:45:05.048Z,101056.97
2023-03-29T11:47:34.931Z,101056.22
2023-03-29T11:50:24.841Z,101059.88
2023-03-29T11:52:55.605Z,101066.22
2023-03-29T11:55:28.332Z,101062.78
2023-03-29T11:58:08.146Z,101065.47
2023-03-29T12:00:39.062Z,101067.31
2023-03-29T12:03:14.828Z,101065.69
2023-03-29T12:06:05.996Z,101069.34
2023-03-29T12:08:40.453Z,101071.31
2023-03-29T12:11:11.673Z,101074.00
2023-03-29T12:14:00.707Z,101071.31
2023-03-29T12:16:49.447Z,101080.28
2023-03-29T12:19:20.492Z,101080.41
2023-03-29T12:21:49.637Z,101075.16
2023-03-29T12:24:19.210Z,101073.47
2023-03-29T12:26:54.163Z,101072.63
2023-03-29T12:29:37.780Z,101073.59
2023-03-29T12:32:07.086Z,101079.06
2023-03-29T12:34:45.510Z,101075.53
2023-03-29T12:37:14.473Z,101071.16
2023-03-29T12:39:44.489Z,101081.03
2023-03-29T12:42:23.261Z,101077.59
2023-03-29T12:44:52.957Z,101082.84
2023-03-29T12:47:25.392Z,101088.28
2023-03-29T12:49:58.186Z,101090.97
2023-03-29T12:52:37.039Z,101090.13
2023-03-29T12:55:25.259Z,101091.09
2023-03-29T12:58:03.607Z,101093.03
2023-03-29T13:00:45.032Z,101075.41
2023-03-29T13:03:29.697Z,101085.13
2023-03-29T13:06:04.020Z,101083.44
2023-03-29T13:08:43.961Z,101081.72
2023-03-29T13:11:36.266Z,101077.47
2023-03-29T13:14:07.343Z,101083.66
2023-03-29T13:16:37.033Z,101082.91
2023-03-29T13:19:25.236Z,101084.75
2023-03-29T13:22:15.951Z,101087.41
2023-03-29T13:25:04.255Z,101081.34
2023-03-29T13:27:38.819Z,101092.03
2023-03-29T13:30:26.214Z,101083.28
2023-03-29T13:32:58.007Z,101079.75
2023-03-29T13:35:33.538Z,101083.28
2023-03-29T13:38:06.733Z,101086.94
2023-03-29T13:40:48.448Z,101085.22
2023-03-29T13:43:25.612Z,101086.19
2023-03-29T13:46:05.104Z,101082.66
2023-03-29T13:48:38.286Z,101079.22
2023-03-29T13:51:17.353Z,101078.28
2023-03-29T13:53:57.261Z,101076.56
2023-03-29T13:56:32.769Z,101086.50
2023-03-29T13:59:07.392Z,101082.00
2023-03-29T14:01:52.153Z,101081.28
2023-03-29T14:04:35.766Z,101079.47
2023-03-29T14:07:10.268Z,101070.69
2023-03-29T14:09:42.895Z,101079.56
2023-03-29T14:12:20.128Z,101082.22
2023-03-29T14:14:59.609Z,101084.19
2023-03-29T14:17:32.058Z,101091.34
2023-03-29T14:20:01.754Z,101085.16
2023-03-29T14:22:36.593Z,101084.41
2023-03-29T14:25:16.137Z,101083.56
2023-03-29T14:27:45.328Z,101090.72
2023-03-29T14:30:34.374Z,101098.84
2023-03-29T14:33:12.453Z,101095.31
2023-03-29T14:35:42.351Z,101097.28
2023-03-29T14:38:13.366Z,101100.91
2023-03-29T14:40:42.524Z,101100.06
2023-03-29T14:43:15.161Z,101093.97
2023-03-29T14:45:46.014Z,101093.97
2023-03-29T14:48:16.107Z,101088.72
2023-03-29T14:50:49.169Z,101088.72
2023-03-29T14:53:23.156Z,101080.84
2023-03-29T14:55:53.853Z,101086.19
2023-03-29T14:58:35.987Z,101085.56
2023-03-29T15:01:13.223Z,101085.56
2023-03-29T15:03:56.677Z,101084.72
2023-03-29T15:06:28.138Z,101075.94
2023-03-29T15:09:06.188Z,101080.44
2023-03-29T15:11:39.504Z,101079.47
2023-03-29T15:14:20.493Z,101065.38
2023-03-29T15:16:59.502Z,101078.84
2023-03-29T15:19:28.902Z,101069.13
2023-03-29T15:21:59.352Z,101068.28
2023-03-29T15:24:33.291Z,101065.75
2023-03-29T15:27:05.011Z,101075.56
2023-03-29T15:29:39.262Z,101073.00
2023-03-29T15:32:09.228Z,101075.69
2023-03-29T15:34:40.029Z,101075.81
2023-03-29T15:37:09.816Z,101073.00
2023-03-29T15:39:39.763Z,101065.22
2023-03-29T15:42:08.957Z,101067.03
2023-03-29T15:44:37.972Z,101070.69
2023-03-29T15:47:11.660Z,101068.09
2023-03-29T15:49:41.852Z,101078.78
2023-03-29T15:52:10.894Z,101075.41
2023-03-29T15:54:42.360Z,101072.72
2023-03-29T15:57:14.433Z,101071.03
2023-03-29T15:59:44.306Z,101076.38
2023-03-29T16:02:17.814Z,101066.63
2023-03-29T16:04:47.654Z,101066.00
2023-03-29T16:07:20.681Z,101065.16
2023-03-29T16:09:53.154Z,101058.00
2023-03-29T16:12:22.674Z,101065.16
2023-03-29T16:14:52.091Z,101065.16
2023-03-29T16:17:21.139Z,101056.44
2023-03-29T16:19:50.222Z,101052.91
2023-03-29T16:22:20.780Z,101045.75
2023-03-29T16:24:57.159Z,101054.69
2023-03-29T16:27:26.851Z,101054.81
2023-03-29T16:29:56.680Z,101045.97
2023-03-29T16:32:25.766Z,101049.69
2023-03-29T16:34:58.241Z,101047.88
2023-03-29T16:37:27.875Z,101046.19
2023-03-29T16:40:00.252Z,101046.31
2023-03-29T16:42:29.827Z,101042.78
2023-03-29T16:45:00.550Z,101048.13
2023-03-29T16:47:30.190Z,101041.06
2023-03-29T16:50:03.096Z,101040.22
2023-03-29T16:52:32.800Z,101037.66
2023-03-29T16:55:05.644Z,101035.09
2023-03-29T16:57:35.011Z,101042.16
2023-03-29T17:00:05.124Z,101042.25
2023-03-29T17:02:34.906Z,101043.09
2023-03-29T17:05:04.551Z,101036.06
2023-03-29T17:07:33.908Z,101037.03
2023-03-29T17:10:06.134Z,101039.72
2023-03-29T17:12:35.074Z,101032.56
2023-03-29T17:15:04.336Z,101027.44
2023-03-29T17:17:33.604Z,101033.53
2023-03-29T17:20:02.680Z,101026.59
2023-03-29T17:22:31.665Z,101031.06
2023-03-29T17:25:00.680Z,101018.69
2023-03-29T17:27:32.415Z,101025.84
2023-03-29T17:30:01.695Z,101019.66
2023-03-29T17:32:33.819Z,101015.28
2023-03-29T17:35:02.895Z,101016.13
2023-03-29T17:37:33.195Z,101010.78
2023-03-29T17:40:02.484Z,101010.78
2023-03-29T17:42:31.498Z,101009.94
2023-03-29T17:45:00.810Z,101013.59
2023-03-29T17:47:29.906Z,101011.84
2023-03-29T17:49:59.455Z,100998.50
2023-03-29T17:52:28.699Z,101009.31
2023-03-29T17:55:00.608Z,100999.47
2023-03-29T17:57:30.413Z,100998.75
2023-03-29T17:59:59.466Z,100996.94
2023-03-29T18:02:28.652Z,101001.44
2023-03-29T18:04:58.890Z,100994.34
2023-03-29T18:07:27.980Z,100998.84
2023-03-29T18:09:56.999Z,101002.50
2023-03-29T18:12:29.596Z,100996.31
2023-03-29T18:14:58.598Z,100998.97
2023-03-29T18:17:28.817Z,100992.88
2023-03-29T18:19:57.912Z,100990.13
2023-03-29T18:22:26.997Z,100990.22
2023-03-29T18:25:02.003Z,100992.88
2023-03-29T18:27:31.015Z,100987.66
2023-03-29T18:30:00.694Z,100995.69
2023-03-29T18:32:29.805Z,100984.38
2023-03-29T18:35:01.770Z,100989.59
2023-03-29T18:37:30.819Z,100984.38
2023-03-29T18:39:59.893Z,100976.50
2023-03-29T18:42:31.609Z,100978.28
2023-03-29T18:45:00.927Z,100981.06
2023-03-29T18:47:30.593Z,100973.91
2023-03-29T18:50:05.844Z,100979.38
2023-03-29T18:52:37.910Z,100978.53
2023-03-29T18:55:08.365Z,100981.19
2023-03-29T18:57:38.256Z,100974.09
2023-03-29T19:00:12.137Z,100975.06
2023-03-29T19:02:42.128Z,100976.06
2023-03-29T19:05:11.636Z,100969.88
2023-03-29T19:07:40.698Z,100971.69
2023-03-29T19:10:10.227Z,100963.69
2023-03-29T19:12:39.263Z,100964.75
2023-03-29T19:15:10.728Z,100969.34
2023-03-29T19:17:42.916Z,100970.19
2023-03-29T19:20:12.235Z,100967.50
2023-03-29T19:22:42.564Z,100964.13
2023-03-29T19:25:14.939Z,100953.44
2023-03-29T19:27:44.275Z,100964.13
2023-03-29T19:30:13.530Z,100954.41
2023-03-29T19:32:42.622Z,100959.00
2023-03-29T19:35:14.779Z,100965.19
2023-03-29T19:37:46.765Z,100969.69
2023-03-29T19:40:15.873Z,100967.97
2023-03-29T19:42:50.991Z,100966.28
2023-03-29T19:45:20.045Z,100970.66
2023-03-29T19:47:53.239Z,100975.22
2023-03-29T19:50:26.925Z,100969.91
2023-03-29T19:52:56.124Z,100970.03
2023-03-29T19:55:27.822Z,100965.66
2023-03-29T19:57:56.947Z,100965.75
2023-03-29T20:00:26.693Z,100968.53
2023-03-29T20:02:57.189Z,100980.06
2023-03-29T20:05:26.178Z,100978.38
2023-03-29T20:07:55.855Z,100978.47
2023-03-29T20:10:24.850Z,100970.66
2023-03-29T20:12:53.899Z,100970.78
2023-03-29T20:15:28.881Z,100970.03
2023-03-29T20:17:59.795Z,100986.19
2023-03-29T20:20:29.106Z,100973.81
2023-03-29T20:23:05.287Z,100975.50
2023-03-29T20:25:39.664Z,100976.47
2023-03-29T20:28:08.673Z,100985.53
2023-03-29T20:30:43.787Z,100987.25
2023-03-29T20:33:13.143Z,100983.00
2023-03-29T20:35:42.165Z,100989.19
2023-03-29T20:38:11.788Z,100985.75
2023-03-29T20:40:42.571Z,100984.06
2023-03-29T20:43:14.745Z,100976.06
2023-03-29T20:45:53.500Z,100987.69
2023-03-29T20:48:31.860Z,100982.47
2023-03-29T20:51:04.449Z,100984.28
2023-03-29T20:53:35.721Z,100982.59
2023-03-29T20:56:04.879Z,100987.91
2023-03-29T20:58:33.927Z,100994.31
2023-03-29T21:01:06.282Z,100985.59
2023-03-29T21:03:35.723Z,100992.75
2023-03-29T21:06:04.884Z,100988.13
2023-03-29T21:08:33.862Z,100991.78
2023-03-29T21:11:03.141Z,100991.66
2023-03-29T21:13:37.076Z,101000.75
2023-03-29T21:16:06.670Z,101000.75
2023-03-29T21:18:37.915Z,100997.94
2023-03-29T21:21:13.511Z,101004.13
2023-03-29T21:23:42.559Z,101001.97
2023-03-29T21:26:11.636Z,101002.22
2023-03-29T21:28:44.713Z,101003.06
2023-03-29T21:31:13.804Z,101000.50
2023-03-29T21:33:42.913Z,101003.06
2023-03-29T21:36:12.105Z,101007.44
2023-03-29T21:38:41.119Z,101009.13
2023-03-29T21:41:20.796Z,101013.53
2023-03-29T21:43:50.106Z,101006.38
2023-03-29T21:46:22.162Z,101005.41
2023-03-29T21:48:51.217Z,101003.50
2023-03-29T21:51:20.316Z,101009.56
2023-03-29T21:53:51.914Z,101015.66
2023-03-29T21:56:27.114Z,101003.16
2023-03-29T21:58:56.193Z,101007.41
2023-03-29T22:01:28.361Z,101007.91
2023-03-29T22:03:57.593Z,101003.19
2023-03-29T22:06:27.077Z,101006.41
2023-03-29T22:08:56.118Z,101008.00
2023-03-29T22:11:27.253Z,101010.47
2023-03-29T22:13:56.380Z,101014.72
2023-03-29T22:16:29.039Z,101015.34
2023-03-29T22:18:58.011Z,101022.16
2023-03-29T22:21:28.202Z,101022.72
2023-03-29T22:24:01.500Z,101029.53
2023-03-29T22:26:31.565Z,101014.38
2023-03-29T22:29:01.225Z,101018.69
2023-03-29T22:31:33.859Z,101032.13
2023-03-29T22:34:04.344Z,101021.25
2023-03-29T22:36:40.588Z,101020.19
2023-03-29T22:39:14.904Z,101032.09
2023-03-29T22:41:44.328Z,101032.13
2023-03-29T22:44:13.288Z,101030.44
2023-03-29T22:46:42.815Z,101033.59
2023-03-29T22:49:12.106Z,101028.88
2023-03-29T22:51:41.235Z,101021.69
2023-03-29T22:54:10.361Z,101026.56
2023-03-29T22:56:39.479Z,101027.78
2023-03-29T22:59:08.715Z,101015.88
2023-03-29T23:01:38.159Z,101020.84
2023-03-29T23:04:07.886Z,101016.31
2023-03-29T23:06:36.915Z,101020.84
2023-03-29T23:12:21.338Z,101026.31
2023-03-29T23:15:42.087Z,101030.81
2023-03-29T23:19:02.336Z,101033.38
2023-03-29T23:22:30.681Z,101039.13
2023-03-29T23:25:21.243Z,101044.41
2023-03-29T23:38:16.937Z,101054.53
2023-03-29T23:40:58.062Z,101062.78
2023-03-29T23:43:49.433Z,101056.47
2023-03-29T23:50:30.338Z,101054.56
